createdAt,value
2022-12-03T00:01:14.485Z,0.09
2022-12-03T00:03:41.259Z,0.12
2022-12-03T00:06:08.120Z,0.09
2022-12-03T00:08:34.764Z,0.12
2022-12-03T00:11:01.442Z,0.09
2022-12-03T00:13:28.040Z,0.10
2022-12-03T00:15:54.683Z,0.12
2022-12-03T00:18:21.344Z,0.17
2022-12-03T00:20:47.922Z,0.17
2022-12-03T00:23:14.440Z,0.15
2022-12-03T00:25:41.015Z,0.16
2022-12-03T00:28:07.886Z,0.18
2022-12-03T00:30:34.851Z,0.18
2022-12-03T00:33:01.417Z,0.16
2022-12-03T00:35:28.100Z,0.12
2022-12-03T00:37:55.957Z,0.14
2022-12-03T00:40:22.531Z,0.17
2022-12-03T00:42:49.127Z,0.18
2022-12-03T00:45:15.695Z,0.18
2022-12-03T00:47:42.284Z,0.18
2022-12-03T00:50:09.901Z,0.16
2022-12-03T00:52:36.493Z,0.16
2022-12-03T00:55:03.398Z,0.19
2022-12-03T00:57:29.934Z,0.12
2022-12-03T00:59:56.521Z,0.13
2022-12-03T01:02:25.627Z,0.13
2022-12-03T01:04:52.580Z,0.16
2022-12-03T01:07:19.391Z,0.12
2022-12-03T01:09:45.893Z,0.15
2022-12-03T01:12:12.440Z,0.17
2022-12-03T01:14:39.019Z,0.22
2022-12-03T01:17:06.841Z,0.18
2022-12-03T01:19:35.249Z,0.14
2022-12-03T01:22:02.306Z,0.13
2022-12-03T01:24:28.849Z,0.10
2022-12-03T01:26:56.715Z,0.05
2022-12-03T01:29:23.617Z,0.03
2022-12-03T01:32:08.710Z,0.04
2022-12-03T01:34:35.479Z,0.07
2022-12-03T01:37:02.193Z,0.08
2022-12-03T01:39:28.774Z,0.10
2022-12-03T01:41:56.659Z,0.14
2022-12-03T01:44:30.034Z,0.09
2022-12-03T01:46:58.474Z,0.06
2022-12-03T01:49:42.133Z,0.05
2022-12-03T01:52:21.366Z,0.09
2022-12-03T01:54:52.616Z,0.12
2022-12-03T01:57:24.667Z,0.16
2022-12-03T01:59:52.763Z,0.14
2022-12-03T02:02:23.829Z,0.18
2022-12-03T02:04:51.263Z,0.20
2022-12-03T02:07:34.950Z,0.21
2022-12-03T02:10:03.947Z,0.20
2022-12-03T02:12:56.327Z,0.17
2022-12-03T02:15:23.277Z,0.17
2022-12-03T02:17:50.317Z,0.19
2022-12-03T02:20:17.094Z,0.17
2022-12-03T02:23:01.945Z,0.15
2022-12-03T02:25:32.303Z,0.15
2022-12-03T02:28:00.438Z,0.13
2022-12-03T02:30:29.117Z,0.11
2022-12-03T02:32:56.665Z,0.11
2022-12-03T02:35:28.594Z,0.14
2022-12-03T02:37:59.423Z,0.16
2022-12-03T02:40:30.959Z,0.12
2022-12-03T02:43:01.179Z,0.16
2022-12-03T02:45:31.690Z,0.13
2022-12-03T02:48:05.939Z,0.12
2022-12-03T02:50:34.551Z,0.16
2022-12-03T02:53:05.645Z,0.16
2022-12-03T02:55:36.808Z,0.05
2022-12-03T02:58:05.400Z,0.08
2022-12-03T03:00:32.872Z,0.11
2022-12-03T03:03:00.597Z,0.10
2022-12-03T03:05:27.326Z,0.12
2022-12-03T03:07:54.311Z,0.12
2022-12-03T03:10:23.491Z,0.14
2022-12-03T03:12:51.676Z,0.16
2022-12-03T03:15:18.308Z,0.13
2022-12-03T03:17:44.984Z,0.17
2022-12-03T03:20:12.337Z,0.15
2022-12-03T03:22:41.031Z,0.08
2022-12-03T03:25:10.911Z,-0.01
2022-12-03T03:27:38.818Z,0.01
2022-12-03T03:30:06.242Z,0.05
2022-12-03T03:32:33.839Z,0.12
2022-12-03T03:35:00.810Z,0.10
2022-12-03T03:37:28.433Z,0.05
2022-12-03T03:39:55.462Z,0.09
2022-12-03T03:42:22.806Z,0.08
2022-12-03T03:44:49.900Z,0.07
2022-12-03T03:47:17.575Z,0.03
2022-12-03T03:49:44.622Z,0.04
2022-12-03T03:52:11.810Z,0.03
2022-12-03T03:54:39.367Z,0.05
2022-12-03T03:57:06.350Z,0.05
2022-12-03T03:59:32.926Z,-0.02
2022-12-03T04:01:59.478Z,0.03
2022-12-03T04:04:35.234Z,0.05
2022-12-03T04:07:02.093Z,0.07
2022-12-03T04:09:28.610Z,0.10
2022-12-03T04:12:13.733Z,0.12
2022-12-03T04:14:40.326Z,0.10
2022-12-03T04:17:06.874Z,0.13
2022-12-03T04:19:33.540Z,0.11
2022-12-03T04:22:18.739Z,0.11
2022-12-03T04:24:45.313Z,0.15
2022-12-03T04:27:30.552Z,0.16
2022-12-03T04:29:57.097Z,0.14
2022-12-03T04:32:42.220Z,0.16
2022-12-03T04:35:28.493Z,0.17
2022-12-03T04:37:55.097Z,0.21
2022-12-03T04:40:40.239Z,0.21
2022-12-03T04:43:06.747Z,0.20
2022-12-03T04:45:33.359Z,0.19
2022-12-03T04:47:59.996Z,0.16
2022-12-03T04:50:26.519Z,0.18
2022-12-03T04:52:53.240Z,0.16
2022-12-03T04:55:19.815Z,0.18
2022-12-03T04:57:46.360Z,0.16
2022-12-03T05:00:13.673Z,0.16
2022-12-03T05:02:40.638Z,0.14
2022-12-03T05:05:07.660Z,0.17
2022-12-03T05:07:34.240Z,0.16
2022-12-03T05:10:00.881Z,0.09
2022-12-03T05:12:27.438Z,0.07
2022-12-03T05:14:54.220Z,-0.01
2022-12-03T05:17:20.992Z,-0.05
2022-12-03T05:20:06.103Z,-0.04
2022-12-03T05:22:32.666Z,0.01
2022-12-03T05:24:59.215Z,0.02
2022-12-03T05:27:25.906Z,-0.02
2022-12-03T05:29:53.067Z,-0.06
2022-12-03T05:32:20.271Z,-0.07
2022-12-03T05:34:46.943Z,-0.07
2022-12-03T05:37:13.633Z,-0.04
2022-12-03T05:39:40.177Z,-0.07
2022-12-03T05:42:25.473Z,-0.06
2022-12-03T05:44:52.103Z,-0.09
2022-12-03T05:47:18.917Z,-0.15
2022-12-03T05:49:45.526Z,-0.07
2022-12-03T05:52:12.100Z,-0.08
2022-12-03T05:54:38.703Z,-0.10
2022-12-03T05:57:05.318Z,-0.18
2022-12-03T05:59:31.857Z,-0.24
2022-12-03T06:01:58.453Z,-0.24
2022-12-03T06:04:25.013Z,-0.23
2022-12-03T06:06:51.531Z,-0.30
2022-12-03T06:09:18.101Z,-0.32
2022-12-03T06:11:44.697Z,-0.29
2022-12-03T06:14:11.239Z,-0.27
2022-12-03T06:16:37.824Z,-0.30
2022-12-03T06:19:04.453Z,-0.30
2022-12-03T06:21:31.017Z,-0.29
2022-12-03T06:23:57.580Z,-0.33
2022-12-03T06:26:24.143Z,-0.36
2022-12-03T06:28:50.630Z,-0.33
2022-12-03T06:31:17.341Z,-0.29
2022-12-03T06:33:43.978Z,-0.25
2022-12-03T06:36:10.604Z,-0.24
2022-12-03T06:38:37.174Z,-0.23
2022-12-03T06:41:03.861Z,-0.22
2022-12-03T06:43:31.034Z,-0.21
2022-12-03T06:45:57.716Z,-0.21
2022-12-03T06:48:24.331Z,-0.19
2022-12-03T06:50:50.859Z,-0.13
2022-12-03T06:53:17.431Z,-0.07
2022-12-03T06:55:43.997Z,-0.05
2022-12-03T06:58:10.658Z,-0.01
2022-12-03T07:00:37.289Z,-0.04
2022-12-03T07:03:04.052Z,-0.03
2022-12-03T07:05:30.639Z,-0.03
2022-12-03T07:07:57.332Z,-0.01
2022-12-03T07:10:23.981Z,0.00
2022-12-03T07:12:50.513Z,-0.03
2022-12-03T07:15:17.230Z,0.01
2022-12-03T07:17:44.213Z,0.05
2022-12-03T07:20:11.122Z,0.05
2022-12-03T07:22:38.317Z,0.08
2022-12-03T07:25:06.204Z,0.11
2022-12-03T07:27:32.759Z,0.12
2022-12-03T07:29:59.317Z,0.17
2022-12-03T07:32:25.881Z,0.19
2022-12-03T07:34:52.783Z,0.22
2022-12-03T07:37:23.082Z,0.22
2022-12-03T07:39:50.247Z,0.24
2022-12-03T07:42:16.818Z,0.24
2022-12-03T07:44:43.355Z,0.22
2022-12-03T07:47:10.172Z,0.24
2022-12-03T07:49:36.782Z,0.26
2022-12-03T07:52:03.395Z,0.25
2022-12-03T07:54:29.963Z,0.23
2022-12-03T07:57:01.207Z,0.20
2022-12-03T07:59:28.807Z,0.23
2022-12-03T08:01:55.579Z,0.29
2022-12-03T08:04:22.313Z,0.34
2022-12-03T08:06:49.228Z,0.37
2022-12-03T08:09:16.362Z,0.39
2022-12-03T08:11:45.450Z,0.40
2022-12-03T08:14:20.667Z,0.39
2022-12-03T08:16:48.928Z,0.42
2022-12-03T08:19:17.092Z,0.44
2022-12-03T08:21:44.582Z,0.46
2022-12-03T08:24:20.207Z,0.41
2022-12-03T08:26:48.435Z,0.38
2022-12-03T08:29:19.887Z,0.40
2022-12-03T08:31:57.649Z,0.44
2022-12-03T08:34:28.117Z,0.40
2022-12-03T08:37:14.917Z,0.44
2022-12-03T08:39:48.411Z,0.44
2022-12-03T08:42:41.967Z,0.47
2022-12-03T08:45:35.146Z,0.51
2022-12-03T08:48:35.001Z,0.55
2022-12-03T08:51:04.102Z,0.55
2022-12-03T08:53:50.855Z,0.59
2022-12-03T08:56:22.215Z,0.50
2022-12-03T08:59:02.926Z,0.52
2022-12-03T09:01:37.963Z,0.55
2022-12-03T09:04:21.797Z,0.59
2022-12-03T09:06:48.678Z,0.59
2022-12-03T09:09:15.539Z,0.59
2022-12-03T09:11:43.322Z,0.57
2022-12-03T09:14:16.731Z,0.59
2022-12-03T09:16:44.928Z,0.65
2022-12-03T09:19:11.614Z,0.66
2022-12-03T09:21:38.136Z,0.63
2022-12-03T09:24:04.981Z,0.65
2022-12-03T09:26:31.505Z,0.66
2022-12-03T09:28:58.074Z,0.70
2022-12-03T09:31:24.794Z,0.75
2022-12-03T09:33:51.347Z,0.73
2022-12-03T09:36:17.872Z,0.73
2022-12-03T09:38:47.747Z,0.77
2022-12-03T09:41:15.004Z,0.81
2022-12-03T09:46:29.732Z,0.93
2022-12-03T09:48:56.801Z,0.97
2022-12-03T09:51:27.180Z,1.03
2022-12-03T09:53:53.856Z,1.03
2022-12-03T09:56:23.370Z,1.01
2022-12-03T09:58:50.522Z,1.02
2022-12-03T10:01:17.923Z,1.05
2022-12-03T10:03:47.906Z,1.04
2022-12-03T10:06:23.758Z,1.07
2022-12-03T10:08:53.574Z,1.00
2022-12-03T10:11:22.539Z,1.00
2022-12-03T10:13:50.146Z,0.99
2022-12-03T10:16:20.780Z,1.01
2022-12-03T10:18:53.481Z,0.99
2022-12-03T10:21:24.425Z,0.99
2022-12-03T10:24:16.849Z,0.96
2022-12-03T10:26:45.187Z,0.96
2022-12-03T10:29:17.914Z,0.93
2022-12-03T10:31:45.044Z,0.91
2022-12-03T10:34:11.897Z,0.83
2022-12-03T10:36:38.528Z,0.73
2022-12-03T10:39:14.466Z,0.70
2022-12-03T10:41:42.968Z,0.67
2022-12-03T10:44:25.589Z,0.61
2022-12-03T10:47:07.718Z,0.66
2022-12-03T10:49:34.689Z,0.55
2022-12-03T10:52:02.083Z,0.54
2022-12-03T10:54:30.943Z,0.55
2022-12-03T10:56:58.357Z,0.55
2022-12-03T10:59:30.465Z,0.55
2022-12-03T11:01:57.217Z,0.55
2022-12-03T11:04:32.499Z,0.54
2022-12-03T11:06:59.326Z,0.46
2022-12-03T11:09:30.008Z,0.47
2022-12-03T11:12:04.395Z,0.44
2022-12-03T11:15:05.172Z,0.52
2022-12-03T11:17:52.384Z,0.54
2022-12-03T11:20:24.959Z,0.54
2022-12-03T11:22:53.020Z,0.68
2022-12-03T11:25:25.584Z,0.72
2022-12-03T11:28:10.499Z,0.66
2022-12-03T11:30:59.185Z,0.74
2022-12-03T11:33:28.713Z,0.72
2022-12-03T11:36:04.468Z,0.76
2022-12-03T11:38:37.119Z,0.83
2022-12-03T11:41:15.826Z,0.74
2022-12-03T11:44:21.304Z,0.75
2022-12-03T11:46:48.067Z,0.78
2022-12-03T11:49:32.152Z,0.75
2022-12-03T11:52:01.297Z,0.81
2022-12-03T11:54:28.099Z,0.67
2022-12-03T11:56:56.149Z,0.73
2022-12-03T11:59:22.748Z,0.79
2022-12-03T12:01:49.317Z,0.85
2022-12-03T12:04:38.004Z,0.96
2022-12-03T12:07:04.648Z,0.84
2022-12-03T12:09:50.894Z,0.80
2022-12-03T12:12:19.601Z,0.76
2022-12-03T12:14:46.285Z,0.74
2022-12-03T12:17:33.134Z,0.72
2022-12-03T12:20:27.059Z,0.70
2022-12-03T12:22:55.059Z,0.69
2022-12-03T12:25:30.600Z,0.73
2022-12-03T12:27:57.584Z,0.78
2022-12-03T12:30:24.201Z,0.63
2022-12-03T12:32:52.748Z,0.69
2022-12-03T12:35:22.269Z,0.80
2022-12-03T12:38:11.043Z,0.85
2022-12-03T12:40:40.134Z,0.85
2022-12-03T12:43:24.066Z,0.93
2022-12-03T12:45:54.667Z,0.94
2022-12-03T12:48:22.739Z,0.81
2022-12-03T12:51:00.083Z,0.77
2022-12-03T12:53:33.010Z,0.82
2022-12-03T12:56:11.800Z,0.89
2022-12-03T12:58:38.399Z,0.88
2022-12-03T13:01:11.303Z,0.88
2022-12-03T13:03:39.707Z,0.82
2022-12-03T13:06:06.625Z,0.84
2022-12-03T13:08:44.236Z,0.85
2022-12-03T13:11:42.294Z,0.90
2022-12-03T13:14:15.108Z,0.90
2022-12-03T13:16:41.752Z,0.90
2022-12-03T13:19:23.665Z,0.91
2022-12-03T13:21:52.680Z,0.96
2022-12-03T13:24:32.212Z,0.92
2022-12-03T13:27:02.600Z,0.92
2022-12-03T13:29:29.191Z,0.89
2022-12-03T13:31:58.871Z,0.91
2022-12-03T13:34:28.491Z,0.95
2022-12-03T13:36:58.508Z,0.98
2022-12-03T13:39:35.432Z,1.01
2022-12-03T13:42:26.767Z,1.01
2022-12-03T13:44:53.356Z,0.96
2022-12-03T13:47:22.927Z,0.95
2022-12-03T13:49:59.078Z,0.97
2022-12-03T13:52:26.148Z,0.98
2022-12-03T13:54:55.302Z,0.97
2022-12-03T13:57:22.026Z,0.93
2022-12-03T13:59:48.933Z,0.88
2022-12-03T14:02:15.715Z,0.87
2022-12-03T14:04:42.461Z,0.88
2022-12-03T14:07:09.006Z,0.83
2022-12-03T14:09:35.569Z,0.83
2022-12-03T14:12:20.804Z,0.82
2022-12-03T14:14:47.382Z,0.84
2022-12-03T14:17:13.949Z,0.80
2022-12-03T14:19:40.573Z,0.74
2022-12-03T14:22:09.227Z,0.73
2022-12-03T14:24:36.831Z,0.72
2022-12-03T14:27:03.568Z,0.70
2022-12-03T14:29:30.079Z,0.69
2022-12-03T14:31:56.789Z,0.64
2022-12-03T14:34:23.415Z,0.60
2022-12-03T14:36:50.113Z,0.61
2022-12-03T14:39:16.808Z,0.63
2022-12-03T14:42:02.172Z,0.61
2022-12-03T14:44:28.733Z,0.63
2022-12-03T14:46:57.272Z,0.64
2022-12-03T14:49:24.326Z,0.61
2022-12-03T14:51:50.863Z,0.63
2022-12-03T14:54:17.392Z,0.54
2022-12-03T14:56:43.950Z,0.51
2022-12-03T14:59:10.653Z,0.52
2022-12-03T15:01:37.358Z,0.52
2022-12-03T15:04:04.163Z,0.50
2022-12-03T15:06:30.979Z,0.49
2022-12-03T15:08:57.565Z,0.46
2022-12-03T15:11:24.320Z,0.48
2022-12-03T15:13:50.972Z,0.44
2022-12-03T15:16:17.671Z,0.44
2022-12-03T15:18:44.364Z,0.41
2022-12-03T15:21:10.926Z,0.42
2022-12-03T15:23:37.730Z,0.43
2022-12-03T15:26:04.391Z,0.48
2022-12-03T15:28:30.897Z,0.49
2022-12-03T15:30:57.604Z,0.49
2022-12-03T15:33:24.213Z,0.48
2022-12-03T15:35:50.777Z,0.45
2022-12-03T15:38:17.575Z,0.46
2022-12-03T15:40:44.193Z,0.43
2022-12-03T15:43:11.151Z,0.46
2022-12-03T15:45:38.171Z,0.47
2022-12-03T15:48:05.096Z,0.46
2022-12-03T15:50:34.587Z,0.43
2022-12-03T15:53:05.178Z,0.45
2022-12-03T15:55:31.746Z,0.44
2022-12-03T15:57:58.481Z,0.41
2022-12-03T16:00:25.401Z,0.45
2022-12-03T16:02:53.065Z,0.46
2022-12-03T16:05:20.309Z,0.43
2022-12-03T16:07:46.967Z,0.45
2022-12-03T16:10:13.696Z,0.38
2022-12-03T16:12:40.341Z,0.42
2022-12-03T16:15:07.551Z,0.38
2022-12-03T16:17:34.164Z,0.34
2022-12-03T16:20:00.825Z,0.38
2022-12-03T16:22:27.480Z,0.38
2022-12-03T16:24:54.049Z,0.34
2022-12-03T16:27:25.340Z,0.34
2022-12-03T16:30:08.380Z,0.37
2022-12-03T16:32:35.052Z,0.40
2022-12-03T16:35:01.676Z,0.42
2022-12-03T16:37:28.289Z,0.45
2022-12-03T16:39:55.006Z,0.43
2022-12-03T16:42:21.856Z,0.46
2022-12-03T16:45:14.513Z,0.47
2022-12-03T16:47:41.057Z,0.48
2022-12-03T16:50:11.594Z,0.50
2022-12-03T16:52:40.827Z,0.51
2022-12-03T16:55:07.887Z,0.53
2022-12-03T16:57:34.412Z,0.51
2022-12-03T17:00:01.179Z,0.53
2022-12-03T17:02:27.942Z,0.52
2022-12-03T17:04:54.918Z,0.51
2022-12-03T17:07:21.547Z,0.52
2022-12-03T17:09:49.023Z,0.54
2022-12-03T17:12:15.667Z,0.55
2022-12-03T17:14:42.274Z,0.59
2022-12-03T17:17:08.819Z,0.62
2022-12-03T17:19:35.435Z,0.61
2022-12-03T17:22:02.145Z,0.64
2022-12-03T17:24:28.704Z,0.65
2022-12-03T17:26:55.268Z,0.62
2022-12-03T17:29:21.839Z,0.62
2022-12-03T17:31:48.437Z,0.63
2022-12-03T17:34:15.141Z,0.60
2022-12-03T17:36:41.752Z,0.59
2022-12-03T17:39:08.607Z,0.58
2022-12-03T17:41:35.194Z,0.63
2022-12-03T17:44:05.983Z,0.60
2022-12-03T17:46:35.509Z,0.63
2022-12-03T17:49:02.190Z,0.63
2022-12-03T17:51:28.762Z,0.66
2022-12-03T17:53:55.350Z,0.59
2022-12-03T17:56:21.940Z,0.62
2022-12-03T17:58:48.461Z,0.61
2022-12-03T18:01:14.991Z,0.61
2022-12-03T18:03:41.668Z,0.61
2022-12-03T18:06:08.325Z,0.63
2022-12-03T18:08:34.886Z,0.60
2022-12-03T18:11:01.506Z,0.62
2022-12-03T18:13:28.199Z,0.59
2022-12-03T18:15:54.867Z,0.62
2022-12-03T18:18:21.540Z,0.58
2022-12-03T18:20:48.214Z,0.62
2022-12-03T18:23:14.826Z,0.63
2022-12-03T18:25:42.036Z,0.62
2022-12-03T18:28:08.583Z,0.61
2022-12-03T18:30:36.323Z,0.62
2022-12-03T18:33:02.856Z,0.64
2022-12-03T18:35:29.463Z,0.66
2022-12-03T18:37:56.072Z,0.65
2022-12-03T18:40:24.806Z,0.63
2022-12-03T18:42:51.327Z,0.64
2022-12-03T18:45:17.878Z,0.63
2022-12-03T18:47:44.889Z,0.61
2022-12-03T18:50:12.007Z,0.62
2022-12-03T18:52:39.493Z,0.63
2022-12-03T18:55:07.173Z,0.64
2022-12-03T18:57:33.783Z,0.63
2022-12-03T19:00:00.467Z,0.64
2022-12-03T19:05:14.250Z,0.62
2022-12-03T19:07:40.923Z,0.62
2022-12-03T19:10:08.722Z,0.63
2022-12-03T19:12:35.737Z,0.62
2022-12-03T19:15:04.794Z,0.60
2022-12-03T19:17:31.834Z,0.58
2022-12-03T19:19:58.570Z,0.58
2022-12-03T19:22:25.233Z,0.52
2022-12-03T19:24:51.867Z,0.52
2022-12-03T19:27:18.564Z,0.54
2022-12-03T19:29:48.688Z,0.54
2022-12-03T19:32:15.396Z,0.53
2022-12-03T19:34:42.051Z,0.57
2022-12-03T19:37:08.670Z,0.52
2022-12-03T19:39:35.215Z,0.50
2022-12-03T19:42:01.764Z,0.49
2022-12-03T19:44:28.340Z,0.51
2022-12-03T19:46:55.031Z,0.51
2022-12-03T19:49:22.376Z,0.51
2022-12-03T19:51:49.389Z,0.54
2022-12-03T19:54:16.766Z,0.57
2022-12-03T19:56:44.183Z,0.53
2022-12-03T19:59:12.719Z,0.52
2022-12-03T20:01:40.850Z,0.51
2022-12-03T20:04:08.426Z,0.51
2022-12-03T20:06:39.715Z,0.52
2022-12-03T20:09:12.476Z,0.51
2022-12-03T20:11:41.122Z,0.52
2022-12-03T20:14:10.547Z,0.54
2022-12-03T20:16:37.193Z,0.52
2022-12-03T20:19:07.050Z,0.53
2022-12-03T20:21:36.022Z,0.54
2022-12-03T20:24:02.757Z,0.50
2022-12-03T20:26:29.680Z,0.48
2022-12-03T20:28:57.189Z,0.48
2022-12-03T20:31:27.036Z,0.50
2022-12-03T20:33:57.411Z,0.49
2022-12-03T20:36:25.147Z,0.47
2022-12-03T20:38:59.522Z,0.47
2022-12-03T20:41:26.774Z,0.45
2022-12-03T20:43:54.100Z,0.42
2022-12-03T20:46:29.369Z,0.42
2022-12-03T20:48:56.904Z,0.45
2022-12-03T20:51:27.207Z,0.41
2022-12-03T20:53:54.578Z,0.44
2022-12-03T20:56:24.675Z,0.44
2022-12-03T20:58:51.277Z,0.44
2022-12-03T21:01:20.528Z,0.46
2022-12-03T21:03:48.306Z,0.47
2022-12-03T21:06:15.579Z,0.45
2022-12-03T21:08:43.449Z,0.46
2022-12-03T21:11:16.000Z,0.48
2022-12-03T21:13:44.096Z,0.47
2022-12-03T21:16:16.800Z,0.53
2022-12-03T21:18:44.245Z,0.53
2022-12-03T21:21:13.058Z,0.51
2022-12-03T21:23:39.717Z,0.49
2022-12-03T21:26:10.299Z,0.50
2022-12-03T21:28:38.538Z,0.47
2022-12-03T21:31:08.451Z,0.49
2022-12-03T21:33:36.147Z,0.49
2022-12-03T21:36:03.199Z,0.45
2022-12-03T21:38:30.096Z,0.44
2022-12-03T21:40:57.631Z,0.44
2022-12-03T21:43:25.024Z,0.43
2022-12-03T21:45:52.004Z,0.47
2022-12-03T21:48:18.829Z,0.47
2022-12-03T21:50:46.008Z,0.41
2022-12-03T21:53:13.235Z,0.44
2022-12-03T21:55:40.769Z,0.47
2022-12-03T21:58:08.788Z,0.46
2022-12-03T22:00:35.723Z,0.39
2022-12-03T22:03:02.440Z,0.37
2022-12-03T22:05:29.072Z,0.34
2022-12-03T22:07:55.639Z,0.34
2022-12-03T22:10:22.297Z,0.34
2022-12-03T22:12:48.909Z,0.32
2022-12-03T22:15:19.219Z,0.27
2022-12-03T22:17:46.766Z,0.27
2022-12-03T22:20:14.132Z,0.28
2022-12-03T22:22:40.730Z,0.32
2022-12-03T22:25:07.958Z,0.33
2022-12-03T22:27:34.574Z,0.30
2022-12-03T22:30:01.145Z,0.27
2022-12-03T22:32:27.767Z,0.27
2022-12-03T22:34:54.323Z,0.31
2022-12-03T22:37:20.846Z,0.31
2022-12-03T22:39:47.395Z,0.31
2022-12-03T22:42:13.933Z,0.30
2022-12-03T22:44:40.525Z,0.32
2022-12-03T22:47:07.117Z,0.33
2022-12-03T22:49:33.665Z,0.33
2022-12-03T22:52:00.176Z,0.32
2022-12-03T22:54:26.744Z,0.24
2022-12-03T22:56:53.271Z,0.21
2022-12-03T22:59:19.890Z,0.20
2022-12-03T23:01:46.503Z,0.22
2022-12-03T23:04:13.217Z,0.25
2022-12-03T23:06:39.889Z,0.27
2022-12-03T23:09:07.601Z,0.30
2022-12-03T23:11:34.408Z,0.29
2022-12-03T23:14:01.017Z,0.29
2022-12-03T23:16:31.187Z,0.27
2022-12-03T23:18:59.541Z,0.18
2022-12-03T23:21:30.265Z,0.20
2022-12-03T23:24:01.383Z,0.16
2022-12-03T23:26:28.495Z,0.14
2022-12-03T23:28:55.084Z,0.08
2022-12-03T23:31:29.831Z,0.06
2022-12-03T23:33:57.603Z,0.09
2022-12-03T23:36:25.981Z,0.12
2022-12-03T23:38:52.829Z,0.11
2022-12-03T23:41:20.921Z,0.11
2022-12-03T23:43:47.809Z,0.07
2022-12-03T23:46:17.710Z,0.09
2022-12-03T23:48:45.473Z,0.10
2022-12-03T23:51:15.329Z,0.07
2022-12-03T23:53:42.468Z,0.11
2022-12-03T23:56:11.829Z,0.13
2022-12-03T23:58:38.741Z,0.08
